Aeroporto :
LOGIN :

Iscrizione | Disclaimer

   EN    FR    IT 

 










Sommario :    VFR   VFR Marginale   IFR   IFR Intensivo   IFR Molto Intensivo
Visibilità : 
Base nubi : 
>= 8 km
>= 3000ft
5 / 8 km
1000 / 3000 ft
1500m / 5 km
500 / 1000 ft
800 / 1500m
200 / 500 ft
< 800m
< 200 ft
Simboli :   Temporali  Nebbia  Neve Forte  Precipitazioni Forti  Vento > 20 kt
SIGMETs :   Varie  Temporali  Ghiacco  Turbolenza  Onda orograficha  Ceneri Vulcaniche






- Altitudine del aeroporto : 341 ft


EPMO - Modlin

ULTIMO METAR :
  • 082230Z 25004KT CAVOK 12/09 Q1016

METARs OBSOLETI :
  • 082200Z 25003KT 220V280 CAVOK 12/09 Q1016
  • 082130Z 26004KT CAVOK 12/09 Q1016
  • 082100Z 26008KT CAVOK 12/09 Q1016
  • 082030Z 27007KT CAVOK 13/09 Q1015
  • 082000Z 26007KT CAVOK 14/09 Q1015

TAF TAF EPMO
Valido dal 08 a 18 ore il 09 a 18 ore UTC


081730Z 0818/0918 25006KT CAVOK
PROB30 0902/0905 4000 BR
BECMG 0909/0912 19010KT
TEMPO 0909/0917 SCT040TCU



MetMap, La meteo Aeronautica in un colpo d'occhio ! - Copyright ORBIFLY Dicembre 2007 - Disclaimer

ORBIFLY MET'MAP TEAM :

Programmazione e sviluppo : Alexandra Zaïnal
Concezione : Baudouin d'Aumeries
Aiuto per la programmazione : Marc-Olivier Méhu
Supporto tecnico e logistico : Manuel Goepfert
Aiuto per la traduzione : Arnaldo La Scala

Contatto : metmap@orbifly.com




FONTI E CREDITI :

   NOAA